sensor_id;sensor_type;location;lat;lon;timestamp;pressure;altitude;pressure_sealevel;temperature;humidity
13968;BME280;39536;52.198;9.920;2023-11-18T00:00:23;101526.06;;;6.69;100.00
13968;BME280;39536;52.198;9.920;2023-11-18T00:02:50;101528.66;;;6.64;100.00
13968;BME280;39536;52.198;9.920;2023-11-18T00:05:17;101538.16;;;6.64;100.00
13968;BME280;39536;52.198;9.920;2023-11-18T00:07:43;101534.72;;;6.53;100.00
13968;BME280;39536;52.198;9.920;2023-11-18T00:10:10;101541.56;;;6.21;100.00
13968;BME280;39536;52.198;9.920;2023-11-18T00:12:38;101545.88;;;6.18;100.00
13968;BME280;39536;52.198;9.920;2023-11-18T00:15:09;101550.19;;;6.14;100.00
13968;BME280;39536;52.198;9.920;2023-11-18T00:17:36;101545.78;;;5.83;100.00
13968;BME280;39536;52.198;9.920;2023-11-18T00:20:04;101540.66;;;5.95;100.00
13968;BME280;39536;52.198;9.920;2023-11-18T00:22:34;101541.53;;;6.06;100.00
13968;BME280;39536;52.198;9.920;2023-11-18T00:25:01;101546.72;;;6.12;100.00
13968;BME280;39536;52.198;9.920;2023-11-18T00:27:30;101538.13;;;6.24;100.00
13968;BME280;39536;52.198;9.920;2023-11-18T00:29:57;101543.31;;;6.29;100.00
13968;BME280;39536;52.198;9.920;2023-11-18T00:32:25;101540.72;;;6.35;100.00
13968;BME280;39536;52.198;9.920;2023-11-18T00:34:51;101543.31;;;6.29;100.00
13968;BME280;39536;52.198;9.920;2023-11-18T00:37:18;101535.56;;;6.30;100.00
13968;BME280;39536;52.198;9.920;2023-11-18T00:39:45;101537.31;;;6.39;100.00
13968;BME280;39536;52.198;9.920;2023-11-18T00:42:11;101539.00;;;6.44;100.00
13968;BME280;39536;52.198;9.920;2023-11-18T00:44:38;101537.31;;;6.54;100.00
13968;BME280;39536;52.198;9.920;2023-11-18T00:47:05;101537.28;;;6.56;100.00
13968;BME280;39536;52.198;9.920;2023-11-18T00:49:33;101548.53;;;6.67;100.00
13968;BME280;39536;52.198;9.920;2023-11-18T00:52:00;101547.66;;;6.71;100.00
13968;BME280;39536;52.198;9.920;2023-11-18T00:54:26;101545.91;;;6.78;100.00
13968;BME280;39536;52.198;9.920;2023-11-18T00:56:53;101551.97;;;6.89;100.00
13968;BME280;39536;52.198;9.920;2023-11-18T00:59:19;101555.38;;;6.94;100.00
13968;BME280;39536;52.198;9.920;2023-11-18T01:01:46;101551.06;;;7.01;100.00
13968;BME280;39536;52.198;9.920;2023-11-18T01:04:14;101556.25;;;7.08;100.00
13968;BME280;39536;52.198;9.920;2023-11-18T01:06:43;101556.25;;;7.02;100.00
13968;BME280;39536;52.198;9.920;2023-11-18T01:09:10;101555.41;;;7.02;100.00
13968;BME280;39536;52.198;9.920;2023-11-18T01:11:37;101556.25;;;6.96;100.00
13968;BME280;39536;52.198;9.920;2023-11-18T01:14:03;101566.63;;;7.02;100.00
13968;BME280;39536;52.198;9.920;2023-11-18T01:16:30;101564.03;;;7.02;100.00
13968;BME280;39536;52.198;9.920;2023-11-18T01:18:57;101560.56;;;7.11;100.00
13968;BME280;39536;52.198;9.920;2023-11-18T01:21:24;101570.91;;;7.15;100.00
13968;BME280;39536;52.198;9.920;2023-11-18T01:23:54;101569.16;;;7.13;100.00
13968;BME280;39536;52.198;9.920;2023-11-18T01:26:20;101570.91;;;7.12;100.00
13968;BME280;39536;52.198;9.920;2023-11-18T01:28:48;101574.34;;;7.13;100.00
13968;BME280;39536;52.198;9.920;2023-11-18T01:31:15;101576.09;;;7.15;100.00
13968;BME280;39536;52.198;9.920;2023-11-18T01:33:43;101581.25;;;7.18;100.00
13968;BME280;39536;52.198;9.920;2023-11-18T01:36:10;101580.41;;;7.20;100.00
13968;BME280;39536;52.198;9.920;2023-11-18T01:38:37;101584.72;;;7.14;100.00
13968;BME280;39536;52.198;9.920;2023-11-18T01:41:06;101576.94;;;7.19;100.00
13968;BME280;39536;52.198;9.920;2023-11-18T01:43:34;101578.66;;;7.18;100.00
13968;BME280;39536;52.198;9.920;2023-11-18T01:46:03;101584.72;;;7.17;100.00
13968;BME280;39536;52.198;9.920;2023-11-18T01:48:32;101576.97;;;7.17;100.00
13968;BME280;39536;52.198;9.920;2023-11-18T01:51:01;101580.41;;;7.06;100.00
13968;BME280;39536;52.198;9.920;2023-11-18T01:53:28;101575.25;;;7.10;100.00
13968;BME280;39536;52.198;9.920;2023-11-18T01:55:55;101583.88;;;7.14;100.00
13968;BME280;39536;52.198;9.920;2023-11-18T01:58:25;101584.72;;;7.14;100.00
13968;BME280;39536;52.198;9.920;2023-11-18T02:00:53;101588.19;;;7.16;100.00
13968;BME280;39536;52.198;9.920;2023-11-18T02:03:19;101592.50;;;7.17;100.00
13968;BME280;39536;52.198;9.920;2023-11-18T02:05:46;101584.72;;;7.13;100.00
13968;BME280;39536;52.198;9.920;2023-11-18T02:08:14;101589.91;;;7.11;100.00
13968;BME280;39536;52.198;9.920;2023-11-18T02:10:46;101589.91;;;7.16;100.00
13968;BME280;39536;52.198;9.920;2023-11-18T02:13:22;101590.75;;;7.21;100.00
13968;BME280;39536;52.198;9.920;2023-11-18T02:15:54;101595.97;;;7.20;100.00
13968;BME280;39536;52.198;9.920;2023-11-18T02:18:24;101602.88;;;6.99;100.00
13968;BME280;39536;52.198;9.920;2023-11-18T02:20:51;101613.22;;;6.68;100.00
13968;BME280;39536;52.198;9.920;2023-11-18T02:23:18;101607.16;;;6.43;100.00
13968;BME280;39536;52.198;9.920;2023-11-18T02:25:48;101605.47;;;6.52;100.00
13968;BME280;39536;52.198;9.920;2023-11-18T02:28:15;101611.47;;;6.47;100.00
13968;BME280;39536;52.198;9.920;2023-11-18T02:30:42;101602.88;;;6.52;100.00
13968;BME280;39536;52.198;9.920;2023-11-18T02:33:15;101602.03;;;6.54;100.00
13968;BME280;39536;52.198;9.920;2023-11-18T02:35:48;101606.31;;;6.69;100.00
13968;BME280;39536;52.198;9.920;2023-11-18T02:38:19;101615.81;;;6.56;100.00
13968;BME280;39536;52.198;9.920;2023-11-18T02:40:52;101622.72;;;6.56;100.00
13968;BME280;39536;52.198;9.920;2023-11-18T02:43:23;101624.47;;;6.67;100.00
13968;BME280;39536;52.198;9.920;2023-11-18T02:45:51;101620.13;;;6.65;100.00
13968;BME280;39536;52.198;9.920;2023-11-18T02:48:20;101618.41;;;6.62;100.00
13968;BME280;39536;52.198;9.920;2023-11-18T02:50:46;101615.84;;;6.64;100.00
13968;BME280;39536;52.198;9.920;2023-11-18T02:53:13;101619.28;;;6.61;100.00
13968;BME280;39536;52.198;9.920;2023-11-18T02:55:39;101620.13;;;6.51;100.00
13968;BME280;39536;52.198;9.920;2023-11-18T02:58:08;101616.66;;;6.54;100.00
13968;BME280;39536;52.198;9.920;2023-11-18T03:00:35;101611.50;;;6.66;100.00
13968;BME280;39536;52.198;9.920;2023-11-18T03:03:03;101607.19;;;6.76;100.00
13968;BME280;39536;52.198;9.920;2023-11-18T03:05:30;101601.16;;;6.78;100.00
13968;BME280;39536;52.198;9.920;2023-11-18T03:07:57;101598.56;;;6.84;100.00
13968;BME280;39536;52.198;9.920;2023-11-18T03:10:24;101593.41;;;6.89;100.00
13968;BME280;39536;52.198;9.920;2023-11-18T03:12:51;101592.50;;;6.91;100.00
13968;BME280;39536;52.198;9.920;2023-11-18T03:15:20;101591.66;;;6.94;100.00
13968;BME280;39536;52.198;9.920;2023-11-18T03:17:47;101591.66;;;6.92;100.00
13968;BME280;39536;52.198;9.920;2023-11-18T03:20:15;101592.50;;;6.91;100.00
13968;BME280;39536;52.198;9.920;2023-11-18T03:22:42;101595.09;;;7.01;100.00
13968;BME280;39536;52.198;9.920;2023-11-18T03:25:10;101599.41;;;7.03;100.00
13968;BME280;39536;52.198;9.920;2023-11-18T03:27:37;101606.31;;;7.09;100.00
13968;BME280;39536;52.198;9.920;2023-11-18T03:30:04;101608.91;;;7.09;100.00
13968;BME280;39536;52.198;9.920;2023-11-18T03:32:33;101607.19;;;7.06;100.00
13968;BME280;39536;52.198;9.920;2023-11-18T03:35:00;101611.53;;;7.04;100.00
13968;BME280;39536;52.198;9.920;2023-11-18T03:37:27;101610.63;;;7.01;100.00
13968;BME280;39536;52.198;9.920;2023-11-18T03:39:53;101613.22;;;7.07;100.00
13968;BME280;39536;52.198;9.920;2023-11-18T03:42:20;101616.72;;;7.04;100.00
13968;BME280;39536;52.198;9.920;2023-11-18T03:44:47;101623.59;;;7.10;100.00
13968;BME280;39536;52.198;9.920;2023-11-18T03:47:16;101622.75;;;7.17;100.00
13968;BME280;39536;52.198;9.920;2023-11-18T03:49:44;101618.41;;;7.10;100.00
13968;BME280;39536;52.198;9.920;2023-11-18T03:52:11;101618.41;;;7.13;100.00
13968;BME280;39536;52.198;9.920;2023-11-18T03:54:37;101614.09;;;7.20;100.00
13968;BME280;39536;52.198;9.920;2023-11-18T03:57:05;101615.81;;;7.14;100.00
13968;BME280;39536;52.198;9.920;2023-11-18T03:59:31;101623.59;;;7.11;100.00
13968;BME280;39536;52.198;9.920;2023-11-18T04:01:58;101616.69;;;7.15;100.00
13968;BME280;39536;52.198;9.920;2023-11-18T04:04:24;101617.56;;;7.14;100.00
13968;BME280;39536;52.198;9.920;2023-11-18T04:06:52;101614.97;;;7.14;100.00
13968;BME280;39536;52.198;9.920;2023-11-18T04:09:19;101615.81;;;7.16;100.00
13968;BME280;39536;52.198;9.920;2023-11-18T04:11:46;101610.63;;;7.19;100.00
13968;BME280;39536;52.198;9.920;2023-11-18T04:14:12;101604.59;;;7.23;100.00
13968;BME280;39536;52.198;9.920;2023-11-18T04:16:39;101607.16;;;7.25;100.00
13968;BME280;39536;52.198;9.920;2023-11-18T04:19:06;101608.91;;;7.27;100.00
13968;BME280;39536;52.198;9.920;2023-11-18T04:21:32;101601.97;;;7.28;100.00
13968;BME280;39536;52.198;9.920;2023-11-18T04:24:00;101599.41;;;7.29;100.00
13968;BME280;39536;52.198;9.920;2023-11-18T04:26:27;101607.19;;;7.11;100.00
13968;BME280;39536;52.198;9.920;2023-11-18T04:28:54;101594.25;;;7.11;100.00
13968;BME280;39536;52.198;9.920;2023-11-18T04:31:20;101590.78;;;7.06;100.00
13968;BME280;39536;52.198;9.920;2023-11-18T04:33:47;101583.88;;;7.06;100.00
13968;BME280;39536;52.198;9.920;2023-11-18T04:36:14;101580.44;;;7.07;100.00
13968;BME280;39536;52.198;9.920;2023-11-18T04:38:41;101576.09;;;7.06;100.00
13968;BME280;39536;52.198;9.920;2023-11-18T04:41:10;101576.09;;;7.08;100.00
13968;BME280;39536;52.198;9.920;2023-11-18T04:43:36;101579.56;;;7.01;100.00
13968;BME280;39536;52.198;9.920;2023-11-18T04:46:06;101576.97;;;7.01;100.00
13968;BME280;39536;52.198;9.920;2023-11-18T04:48:32;101580.44;;;7.00;100.00
13968;BME280;39536;52.198;9.920;2023-11-18T04:51:00;101576.97;;;7.04;100.00
13968;BME280;39536;52.198;9.920;2023-11-18T04:53:26;101572.66;;;7.01;100.00
13968;BME280;39536;52.198;9.920;2023-11-18T04:55:53;101578.72;;;6.99;100.00
13968;BME280;39536;52.198;9.920;2023-11-18T04:58:21;101582.16;;;7.02;100.00
13968;BME280;39536;52.198;9.920;2023-11-18T05:00:48;101581.28;;;7.00;100.00
13968;BME280;39536;52.198;9.920;2023-11-18T05:03:16;101580.44;;;7.00;100.00
13968;BME280;39536;52.198;9.920;2023-11-18T05:05:42;101571.78;;;7.01;100.00
13968;BME280;39536;52.198;9.920;2023-11-18T05:08:18;101578.72;;;7.05;100.00
13968;BME280;39536;52.198;9.920;2023-11-18T05:10:47;101570.06;;;7.06;100.00
13968;BME280;39536;52.198;9.920;2023-11-18T05:13:14;101569.19;;;7.05;100.00
13968;BME280;39536;52.198;9.920;2023-11-18T05:15:43;101563.16;;;7.03;100.00
13968;BME280;39536;52.198;9.920;2023-11-18T05:18:11;101565.75;;;7.02;100.00
13968;BME280;39536;52.198;9.920;2023-11-18T05:20:40;101565.75;;;7.00;100.00
13968;BME280;39536;52.198;9.920;2023-11-18T05:23:06;101563.16;;;6.96;100.00
13968;BME280;39536;52.198;9.920;2023-11-18T05:25:35;101563.16;;;6.94;100.00
13968;BME280;39536;52.198;9.920;2023-11-18T05:28:02;101562.31;;;6.90;100.00
13968;BME280;39536;52.198;9.920;2023-11-18T05:30:29;101551.09;;;6.85;100.00
13968;BME280;39536;52.198;9.920;2023-11-18T05:32:57;101555.41;;;6.79;100.00
13968;BME280;39536;52.198;9.920;2023-11-18T05:35:24;101562.31;;;6.77;100.00
13968;BME280;39536;52.198;9.920;2023-11-18T05:37:54;101561.44;;;6.75;100.00
13968;BME280;39536;52.198;9.920;2023-11-18T05:40:20;101563.16;;;6.76;100.00
13968;BME280;39536;52.198;9.920;2023-11-18T05:42:48;101557.13;;;6.72;100.00
13968;BME280;39536;52.198;9.920;2023-11-18T05:45:17;101564.91;;;6.70;100.00
13968;BME280;39536;52.198;9.920;2023-11-18T05:47:53;101555.41;;;6.66;100.00
13968;BME280;39536;52.198;9.920;2023-11-18T05:50:22;101551.09;;;6.53;100.00
13968;BME280;39536;52.198;9.920;2023-11-18T05:52:50;101541.63;;;6.55;100.00
13968;BME280;39536;52.198;9.920;2023-11-18T05:55:16;101539.00;;;6.57;100.00
13968;BME280;39536;52.198;9.920;2023-11-18T05:57:43;101539.03;;;6.52;100.00
13968;BME280;39536;52.198;9.920;2023-11-18T06:00:11;101533.00;;;6.48;100.00
13968;BME280;39536;52.198;9.920;2023-11-18T06:02:40;101537.31;;;6.45;100.00
13968;BME280;39536;52.198;9.920;2023-11-18T06:05:08;101536.44;;;6.40;100.00
13968;BME280;39536;52.198;9.920;2023-11-18T06:07:36;101536.41;;;6.38;100.00
13968;BME280;39536;52.198;9.920;2023-11-18T06:10:06;101543.31;;;6.36;100.00
13968;BME280;39536;52.198;9.920;2023-11-18T06:12:33;101541.59;;;6.31;100.00
13968;BME280;39536;52.198;9.920;2023-11-18T06:15:02;101542.47;;;6.30;100.00
13968;BME280;39536;52.198;9.920;2023-11-18T06:17:29;101544.19;;;6.28;100.00
13968;BME280;39536;52.198;9.920;2023-11-18T06:19:55;101534.69;;;6.27;100.00
13968;BME280;39536;52.198;9.920;2023-11-18T06:22:22;101543.28;;;6.22;100.00
13968;BME280;39536;52.198;9.920;2023-11-18T06:24:51;101543.28;;;6.16;100.00
13968;BME280;39536;52.198;9.920;2023-11-18T06:27:18;101550.19;;;6.13;100.00
13968;BME280;39536;52.198;9.920;2023-11-18T06:29:49;101541.56;;;6.11;100.00
13968;BME280;39536;52.198;9.920;2023-11-18T06:32:15;101536.41;;;6.11;100.00
13968;BME280;39536;52.198;9.920;2023-11-18T06:34:42;101548.44;;;6.04;100.00
13968;BME280;39536;52.198;9.920;2023-11-18T06:37:09;101547.56;;;5.99;100.00
13968;BME280;39536;52.198;9.920;2023-11-18T06:39:41;101553.56;;;5.95;100.00
13968;BME280;39536;52.198;9.920;2023-11-18T06:42:10;101551.81;;;5.91;100.00
13968;BME280;39536;52.198;9.920;2023-11-18T06:44:37;101555.25;;;5.91;100.00
13968;BME280;39536;52.198;9.920;2023-11-18T06:47:04;101554.41;;;5.91;100.00
13968;BME280;39536;52.198;9.920;2023-11-18T06:49:31;101566.47;;;5.86;100.00
13968;BME280;39536;52.198;9.920;2023-11-18T06:51:59;101569.91;;;5.88;100.00
13968;BME280;39536;52.198;9.920;2023-11-18T06:54:28;101568.19;;;5.88;100.00
13968;BME280;39536;52.198;9.920;2023-11-18T06:56:55;101572.53;;;5.94;100.00
13968;BME280;39536;52.198;9.920;2023-11-18T06:59:23;101576.81;;;5.92;100.00
13968;BME280;39536;52.198;9.920;2023-11-18T07:01:50;101582.84;;;5.91;100.00
13968;BME280;39536;52.198;9.920;2023-11-18T07:04:17;101584.56;;;5.87;100.00
13968;BME280;39536;52.198;9.920;2023-11-18T07:06:44;101580.25;;;5.86;100.00
13968;BME280;39536;52.198;9.920;2023-11-18T07:09:11;101578.50;;;5.85;100.00
13968;BME280;39536;52.198;9.920;2023-11-18T07:11:42;101584.56;;;5.84;100.00
13968;BME280;39536;52.198;9.920;2023-11-18T07:14:09;101589.72;;;5.83;100.00
13968;BME280;39536;52.198;9.920;2023-11-18T07:16:39;101585.41;;;5.85;100.00
13968;BME280;39536;52.198;9.920;2023-11-18T07:19:06;101581.09;;;5.85;100.00
13968;BME280;39536;52.198;9.920;2023-11-18T07:21:33;101590.63;;;5.89;100.00
13968;BME280;39536;52.198;9.920;2023-11-18T07:24:00;101584.56;;;5.92;100.00
13968;BME280;39536;52.198;9.920;2023-11-18T07:26:27;101590.63;;;5.89;100.00
13968;BME280;39536;52.198;9.920;2023-11-18T07:28:54;101593.25;;;5.98;100.00
13968;BME280;39536;52.198;9.920;2023-11-18T07:31:21;101588.94;;;5.99;100.00
13968;BME280;39536;52.198;9.920;2023-11-18T07:33:49;101591.53;;;6.04;100.00
13968;BME280;39536;52.198;9.920;2023-11-18T07:36:16;101594.97;;;5.98;100.00
13968;BME280;39536;52.198;9.920;2023-11-18T07:38:45;101588.09;;;6.00;100.00
13968;BME280;39536;52.198;9.920;2023-11-18T07:41:11;101576.88;;;6.01;100.00
13968;BME280;39536;52.198;9.920;2023-11-18T07:43:49;101577.75;;;6.03;100.00
13968;BME280;39536;52.198;9.920;2023-11-18T07:46:15;101585.53;;;6.01;100.00
13968;BME280;39536;52.198;9.920;2023-11-18T07:48:42;101582.91;;;6.03;100.00
13968;BME280;39536;52.198;9.920;2023-11-18T07:51:10;101594.13;;;6.10;100.00
13968;BME280;39536;52.198;9.920;2023-11-18T07:53:38;101595.88;;;6.11;100.00
13968;BME280;39536;52.198;9.920;2023-11-18T07:56:05;101601.94;;;6.19;100.00
13968;BME280;39536;52.198;9.920;2023-11-18T07:58:39;101606.25;;;6.23;100.00
13968;BME280;39536;52.198;9.920;2023-11-18T08:01:31;101601.94;;;6.22;100.00
13968;BME280;39536;52.198;9.920;2023-11-18T08:03:58;101607.97;;;6.22;100.00
13968;BME280;39536;52.198;9.920;2023-11-18T08:06:26;101612.31;;;6.28;100.00
13968;BME280;39536;52.198;9.920;2023-11-18T08:08:53;101609.75;;;6.36;100.00
13968;BME280;39536;52.198;9.920;2023-11-18T08:11:22;101600.25;;;6.39;100.00
13968;BME280;39536;52.198;9.920;2023-11-18T08:13:50;101601.13;;;6.44;100.00
13968;BME280;39536;52.198;9.920;2023-11-18T08:16:18;101593.38;;;6.54;100.00
13968;BME280;39536;52.198;9.920;2023-11-18T08:18:47;101587.34;;;6.59;100.00
13968;BME280;39536;52.198;9.920;2023-11-18T08:21:14;101580.44;;;6.67;100.00
13968;BME280;39536;52.198;9.920;2023-11-18T08:23:43;101582.16;;;6.75;100.00
13968;BME280;39536;52.198;9.920;2023-11-18T08:26:11;101568.34;;;6.74;100.00
13968;BME280;39536;52.198;9.920;2023-11-18T08:28:38;101563.16;;;6.72;100.00
13968;BME280;39536;52.198;9.920;2023-11-18T08:31:04;101563.19;;;6.77;100.00
13968;BME280;39536;52.198;9.920;2023-11-18T08:33:31;101564.06;;;6.79;100.00
13968;BME280;39536;52.198;9.920;2023-11-18T08:35:59;101557.97;;;6.85;100.00
13968;BME280;39536;52.198;9.920;2023-11-18T08:38:27;101553.69;;;6.85;100.00
13968;BME280;39536;52.198;9.920;2023-11-18T08:40:56;101553.69;;;6.87;100.00
13968;BME280;39536;52.198;9.920;2023-11-18T08:43:23;101549.34;;;6.84;100.00
13968;BME280;39536;52.198;9.920;2023-11-18T08:45:50;101551.09;;;6.85;100.00
13968;BME280;39536;52.198;9.920;2023-11-18T08:48:17;101556.28;;;6.79;100.00
13968;BME280;39536;52.198;9.920;2023-11-18T08:50:43;101561.44;;;6.75;100.00
13968;BME280;39536;52.198;9.920;2023-11-18T08:53:10;101559.72;;;6.80;100.00
13968;BME280;39536;52.198;9.920;2023-11-18T08:55:37;101567.47;;;6.78;100.00
13968;BME280;39536;52.198;9.920;2023-11-18T08:58:17;101570.94;;;6.76;100.00
13968;BME280;39536;52.198;9.920;2023-11-18T09:00:48;101578.69;;;6.79;100.00
13968;BME280;39536;52.198;9.920;2023-11-18T09:03:19;101577.84;;;6.92;100.00
13968;BME280;39536;52.198;9.920;2023-11-18T09:05:51;101583.03;;;6.98;100.00
13968;BME280;39536;52.198;9.920;2023-11-18T09:08:25;101583.88;;;7.02;100.00
13968;BME280;39536;52.198;9.920;2023-11-18T09:10:52;101577.84;;;7.03;100.00
13968;BME280;39536;52.198;9.920;2023-11-18T09:13:22;101567.50;;;7.01;100.00
13968;BME280;39536;52.198;9.920;2023-11-18T09:15:50;101567.47;;;7.03;100.00
13968;BME280;39536;52.198;9.920;2023-11-18T09:18:17;101571.78;;;7.04;100.00
13968;BME280;39536;52.198;9.920;2023-11-18T09:20:45;101562.28;;;7.06;100.00
13968;BME280;39536;52.198;9.920;2023-11-18T09:23:13;101554.50;;;7.06;100.00
13968;BME280;39536;52.198;9.920;2023-11-18T09:25:41;101545.88;;;7.08;100.00
13968;BME280;39536;52.198;9.920;2023-11-18T09:28:12;101545.88;;;7.14;100.00
13968;BME280;39536;52.198;9.920;2023-11-18T09:30:42;101532.03;;;7.22;100.00
13968;BME280;39536;52.198;9.920;2023-11-18T09:33:17;101538.91;;;7.32;100.00
13968;BME280;39536;52.198;9.920;2023-11-18T09:35:52;101539.72;;;7.43;100.00
13968;BME280;39536;52.198;9.920;2023-11-18T09:38:21;101542.28;;;7.55;100.00
13968;BME280;39536;52.198;9.920;2023-11-18T09:40:49;101540.53;;;7.62;100.00
13968;BME280;39536;52.198;9.920;2023-11-18T09:43:18;101543.09;;;7.70;100.00
13968;BME280;39536;52.198;9.920;2023-11-18T09:45:49;101536.16;;;7.72;100.00
13968;BME280;39536;52.198;9.920;2023-11-18T09:48:20;101534.44;;;7.74;100.00
13968;BME280;39536;52.198;9.920;2023-11-18T09:50:51;101528.34;;;7.75;100.00
13968;BME280;39536;52.198;9.920;2023-11-18T09:53:19;101530.06;;;7.83;100.00
13968;BME280;39536;52.198;9.920;2023-11-18T09:55:50;101530.00;;;7.88;100.00
13968;BME280;39536;52.198;9.920;2023-11-18T09:58:21;101527.44;;;7.86;100.00
13968;BME280;39536;52.198;9.920;2023-11-18T10:00:56;101517.03;;;7.90;100.00
13968;BME280;39536;52.198;9.920;2023-11-18T10:03:27;101527.38;;;7.97;100.00
13968;BME280;39536;52.198;9.920;2023-11-18T10:05:56;101534.25;;;8.04;100.00
13968;BME280;39536;52.198;9.920;2023-11-18T10:08:30;101534.25;;;8.04;100.00
13968;BME280;39536;52.198;9.920;2023-11-18T10:10:57;101522.94;;;8.16;100.00
13968;BME280;39536;52.198;9.920;2023-11-18T10:13:31;101513.34;;;8.29;100.00
13968;BME280;39536;52.198;9.920;2023-11-18T10:16:01;101501.16;;;8.37;100.00
13968;BME280;39536;52.198;9.920;2023-11-18T10:18:30;101500.38;;;8.29;100.00
13968;BME280;39536;52.198;9.920;2023-11-18T10:21:02;101489.03;;;8.34;100.00
13968;BME280;39536;52.198;9.920;2023-11-18T10:23:30;101484.72;;;8.37;100.00
13968;BME280;39536;52.198;9.920;2023-11-18T10:25:59;101466.53;;;8.37;100.00
13968;BME280;39536;52.198;9.920;2023-11-18T10:28:27;101464.81;;;8.37;100.00
13968;BME280;39536;52.198;9.920;2023-11-18T10:30:55;101456.06;;;8.52;100.00
13968;BME280;39536;52.198;9.920;2023-11-18T10:33:24;101461.00;;;8.75;100.00
13968;BME280;39536;52.198;9.920;2023-11-18T10:35:56;101472.16;;;8.85;100.00
13968;BME280;39536;52.198;9.920;2023-11-18T10:38:23;101465.22;;;8.87;100.00
13968;BME280;39536;52.198;9.920;2023-11-18T10:40:55;101465.97;;;8.96;100.00
13968;BME280;39536;52.198;9.920;2023-11-18T10:43:23;101461.56;;;9.05;100.00
13968;BME280;39536;52.198;9.920;2023-11-18T10:45:52;101458.91;;;9.09;100.00
13968;BME280;39536;52.198;9.920;2023-11-18T10:48:19;101459.84;;;9.07;100.00
13968;BME280;39536;52.198;9.920;2023-11-18T10:50:47;101463.38;;;8.96;100.00
13968;BME280;39536;52.198;9.920;2023-11-18T10:53:17;101447.06;;;8.85;100.00
13968;BME280;39536;52.198;9.920;2023-11-18T10:55:44;101441.09;;;8.78;100.00
13968;BME280;39536;52.198;9.920;2023-11-18T10:58:11;101444.53;;;8.77;100.00
13968;BME280;39536;52.198;9.920;2023-11-18T11:00:47;101436.75;;;8.77;100.00
13968;BME280;39536;52.198;9.920;2023-11-18T11:03:14;101431.72;;;8.64;100.00
13968;BME280;39536;52.198;9.920;2023-11-18T11:05:41;101434.41;;;8.53;100.00
13968;BME280;39536;52.198;9.920;2023-11-18T11:08:11;101423.09;;;8.60;100.00
13968;BME280;39536;52.198;9.920;2023-11-18T11:10:40;101416.09;;;8.65;100.00
13968;BME280;39536;52.198;9.920;2023-11-18T11:13:08;101408.41;;;8.58;100.00
13968;BME280;39536;52.198;9.920;2023-11-18T11:15:40;101400.75;;;8.41;100.00
13968;BME280;39536;52.198;9.920;2023-11-18T11:18:11;101401.63;;;8.37;100.00
13968;BME280;39536;52.198;9.920;2023-11-18T11:20:42;101386.09;;;8.38;100.00
13968;BME280;39536;52.198;9.920;2023-11-18T11:23:20;101374.03;;;8.29;100.00
13968;BME280;39536;52.198;9.920;2023-11-18T11:25:56;101376.66;;;8.26;100.00
13968;BME280;39536;52.198;9.920;2023-11-18T11:28:34;101378.34;;;8.32;100.00
13968;BME280;39536;52.198;9.920;2023-11-18T11:31:12;101372.34;;;8.24;100.00
13968;BME280;39536;52.198;9.920;2023-11-18T11:33:43;101379.25;;;8.25;100.00
13968;BME280;39536;52.198;9.920;2023-11-18T11:36:18;101372.31;;;8.27;100.00
13968;BME280;39536;52.198;9.920;2023-11-18T11:38:50;101369.72;;;8.25;100.00
13968;BME280;39536;52.198;9.920;2023-11-18T11:41:23;101380.94;;;8.32;100.00
13968;BME280;39536;52.198;9.920;2023-11-18T11:43:53;101382.59;;;8.38;100.00
13968;BME280;39536;52.198;9.920;2023-11-18T11:46:25;101383.50;;;8.38;100.00
13968;BME280;39536;52.198;9.920;2023-11-18T11:48:59;101371.38;;;8.34;100.00
13968;BME280;39536;52.198;9.920;2023-11-18T11:51:37;101375.72;;;8.38;100.00
13968;BME280;39536;52.198;9.920;2023-11-18T11:54:11;101378.25;;;8.43;100.00
13968;BME280;39536;52.198;9.920;2023-11-18T11:56:42;101373.00;;;8.50;100.00
13968;BME280;39536;52.198;9.920;2023-11-18T11:59:12;101364.31;;;8.51;100.00
13968;BME280;39536;52.198;9.920;2023-11-18T12:01:40;101350.50;;;8.46;100.00
13968;BME280;39536;52.198;9.920;2023-11-18T12:04:12;101328.03;;;8.44;100.00
13968;BME280;39536;52.198;9.920;2023-11-18T12:06:48;101315.09;;;8.42;100.00
13968;BME280;39536;52.198;9.920;2023-11-18T12:09:20;101318.63;;;8.30;100.00
13968;BME280;39536;52.198;9.920;2023-11-18T12:11:47;101314.38;;;8.25;100.00
13968;BME280;39536;52.198;9.920;2023-11-18T12:14:16;101313.44;;;8.30;100.00
13968;BME280;39536;52.198;9.920;2023-11-18T12:17:07;101316.13;;;8.21;100.00
13968;BME280;39536;52.198;9.920;2023-11-18T12:19:35;101320.53;;;8.16;100.00
13968;BME280;39536;52.198;9.920;2023-11-18T12:22:19;101316.25;;;8.10;100.00
13968;BME280;39536;52.198;9.920;2023-11-18T12:28:10;101312.75;;;8.15;100.00
13968;BME280;39536;52.198;9.920;2023-11-18T12:30:44;101327.50;;;8.11;100.00
13968;BME280;39536;52.198;9.920;2023-11-18T12:33:59;101319.72;;;8.11;100.00
13968;BME280;39536;52.198;9.920;2023-11-18T12:42:58;101317.81;;;8.27;100.00
13968;BME280;39536;52.198;9.920;2023-11-18T12:45:42;101322.97;;;8.28;100.00
13968;BME280;39536;52.198;9.920;2023-11-18T12:48:14;101322.06;;;8.34;100.00
13968;BME280;39536;52.198;9.920;2023-11-18T12:50:41;101319.47;;;8.39;100.00
13968;BME280;39536;52.198;9.920;2023-11-18T12:53:11;101300.47;;;8.30;100.00
13968;BME280;39536;52.198;9.920;2023-11-18T12:55:40;101300.47;;;8.30;100.00
13968;BME280;39536;52.198;9.920;2023-11-18T12:58:08;101297.94;;;8.24;100.00
13968;BME280;39536;52.198;9.920;2023-11-18T13:00:40;101290.19;;;8.23;100.00
13968;BME280;39536;52.198;9.920;2023-11-18T13:03:08;101281.44;;;8.28;100.00
13968;BME280;39536;52.198;9.920;2023-11-18T13:05:36;101281.44;;;8.28;100.00
13968;BME280;39536;52.198;9.920;2023-11-18T13:08:03;101290.06;;;8.35;100.00